Time;durP1;ratioP1;P1;durP2;ratioP2;P2;SDS_P1;SDS_P2;PMS_P1;PMS_P2;Temp;Humidity;BMP_temperature;BMP_pressure;BME280_temperature;BME280_humidity;BME280_pressure;Samples;Min_cycle;Max_cycle;Signal;HPM_P1;HPM_P2
2023/11/13 00:00:29;;;;;;;5.50;4.53;;;6.20;99.90;;;-141.84;93.20;25001.84;5005377;28;20222;-61
2023/11/13 00:02:57;;;;;;;4.43;4.00;;;6.20;99.90;;;-141.84;90.03;20700.03;5006668;28;20293;-61
2023/11/13 00:05:27;;;;;;;6.43;4.07;;;6.40;99.90;;;-141.84;88.07;19927.66;4990604;28;20234;-61
2023/11/13 00:07:57;;;;;;;4.87;3.97;;;6.40;99.90;;;-141.84;86.92;19669.53;4992735;28;20231;-61
2023/11/13 00:10:25;;;;;;;4.40;4.00;;;6.50;99.90;;;-141.84;87.21;19700.03;5005544;28;20234;-60
2023/11/13 00:12:53;;;;;;;5.30;4.23;;;6.50;99.90;;;-141.84;86.59;19553.72;4986657;28;20700;-62
2023/11/13 00:15:22;;;;;;;3.97;3.53;;;6.50;99.90;;;-141.84;87.90;19795.53;4965941;28;20283;-62
2023/11/13 00:17:50;;;;;;;4.50;3.80;;;6.40;99.90;;;-141.84;89.78;20273.19;4991552;28;20266;-61
2023/11/13 00:20:18;;;;;;;4.53;4.03;;;6.30;99.90;;;-141.84;90.81;20925.69;5003073;28;20740;-60
2023/11/13 00:22:48;;;;;;;6.10;4.10;;;6.30;99.90;;;-141.84;91.19;21277.41;4984995;28;20258;-62
2023/11/13 00:25:16;;;;;;;5.23;4.30;;;6.20;99.90;;;-141.84;90.89;20907.41;4985078;28;20234;-61
2023/11/13 00:27:45;;;;;;;4.80;3.93;;;6.10;99.90;;;-141.84;92.11;21818.25;4978241;28;20317;-60
2023/11/13 00:30:14;;;;;;;4.97;4.03;;;6.10;99.90;;;-141.84;93.55;24147.19;4985269;28;20239;-61
2023/11/13 00:32:42;;;;;;;5.40;4.13;;;6.00;99.90;;;-141.84;93.52;24222.47;4985580;28;20238;-61
2023/11/13 00:35:11;;;;;;;5.87;4.20;;;6.00;99.90;;;-141.84;93.61;24537.88;4985361;28;20243;-61
2023/11/13 00:37:39;;;;;;;5.40;4.30;;;5.90;99.90;;;-141.84;94.70;26974.31;4984621;28;20390;-61
2023/11/13 00:40:12;;;;;;;4.60;4.00;;;5.80;99.90;;;-141.84;94.42;26803.28;4990888;28;20261;-61
2023/11/13 00:42:41;;;;;;;4.87;4.17;;;5.80;99.90;;;-141.84;94.37;26107.03;4994822;28;20233;-61
2023/11/13 00:45:10;;;;;;;5.53;4.70;;;5.70;99.90;;;-141.84;94.87;27994.53;4985051;28;20289;-60
2023/11/13 00:47:38;;;;;;;6.67;5.23;;;5.70;99.90;;;-141.84;95.08;28819.44;4994386;28;20276;-61
2023/11/13 00:50:10;;;;;;;8.07;4.77;;;5.70;99.90;;;-141.84;95.44;30204.88;4992834;28;20301;-60
2023/11/13 00:52:39;;;;;;;7.43;5.13;;;5.60;99.90;;;-141.84;95.47;30111.16;4985303;28;20242;-60
2023/11/13 00:55:10;;;;;;;6.00;5.10;;;5.70;99.90;;;-141.84;96.76;35686.25;4984960;28;20231;-61
2023/11/13 00:57:38;;;;;;;6.17;5.20;;;5.60;99.90;;;-141.84;97.71;43072.13;4978307;28;20227;-60
2023/11/13 01:00:10;;;;;;;6.23;5.17;;;5.60;99.90;;;-141.84;97.86;44442.13;5002865;28;20203;-61
2023/11/13 01:02:38;;;;;;;6.17;4.40;;;5.50;99.90;;;-141.84;97.62;44442.13;4989040;28;20262;-61
2023/11/13 01:05:07;;;;;;;7.37;5.00;;;5.50;99.90;;;-141.84;96.82;39230.41;4985033;28;20694;-61
2023/11/13 01:07:35;;;;;;;5.20;4.40;;;5.60;99.90;;;-141.84;95.43;31293.22;4978782;28;20254;-60
2023/11/13 01:10:05;;;;;;;6.40;5.07;;;5.60;99.90;;;-141.84;95.83;31837.50;4985395;28;20280;-60
2023/11/13 01:12:36;;;;;;;5.80;4.60;;;5.60;99.90;;;-141.84;96.99;37813.19;4985201;28;20245;-61
2023/11/13 01:15:06;;;;;;;6.07;4.90;;;5.50;99.90;;;-141.84;97.98;44180.38;4985350;28;20277;-61
2023/11/13 01:17:36;;;;;;;5.40;4.33;;;5.40;99.90;;;-141.84;99.29;52565.75;4978648;28;20647;-61
2023/11/13 01:20:06;;;;;;;7.43;5.20;;;5.40;99.90;;;-141.84;99.22;52828.09;4984844;28;20773;-62
2023/11/13 01:22:34;;;;;;;5.20;4.53;;;5.30;99.90;;;-141.84;100.00;57815.66;4984859;28;20657;-61
2023/11/13 01:25:03;;;;;;;6.57;4.93;;;5.30;99.90;;;-141.84;100.00;61757.66;4984734;28;20328;-61
2023/11/13 01:27:31;;;;;;;7.23;5.80;;;5.30;99.90;;;-141.84;99.46;55714.84;4978289;28;20709;-62
2023/11/13 01:30:00;;;;;;;6.67;5.70;;;5.30;99.90;;;-141.84;98.27;47584.78;4983832;28;20212;-62
2023/11/13 01:32:29;;;;;;;6.93;5.03;;;5.30;99.90;;;-141.84;99.39;52828.09;4980227;28;20239;-61
2023/11/13 01:34:57;;;;;;;5.50;5.00;;;5.30;99.90;;;-141.84;100.00;59129.22;4987979;28;20281;-61
2023/11/13 01:37:25;;;;;;;6.90;6.20;;;5.20;99.90;;;-141.84;100.00;62020.59;4982799;28;20647;-64
2023/11/13 01:39:54;;;;;;;7.37;5.60;;;5.20;99.90;;;-141.84;100.00;65966.75;4980750;28;20234;-60
2023/11/13 01:42:22;;;;;;;6.03;5.40;;;5.20;99.90;;;-141.84;100.00;70180.31;4969168;28;20782;-61
2023/11/13 01:44:51;;;;;;;5.83;5.23;;;5.20;99.90;;;-141.84;100.00;73607.09;4988330;28;20248;-60
2023/11/13 01:47:20;;;;;;;7.40;5.83;;;5.30;99.90;;;-141.84;100.00;73870.81;4988724;28;20234;-61
2023/11/13 01:49:50;;;;;;;5.90;4.97;;;5.30;99.90;;;-141.84;100.00;71497.94;4973865;28;20263;-61
2023/11/13 01:52:19;;;;;;;5.80;4.93;;;5.50;99.90;;;-141.84;100.00;64124.72;4969758;28;20232;-61
2023/11/13 01:54:47;;;;;;;7.73;5.23;;;5.60;99.90;;;-141.84;98.84;53615.19;4969599;28;20231;-60
2023/11/13 01:57:16;;;;;;;6.40;5.17;;;5.70;99.90;;;-141.84;98.68;51516.59;4971631;28;20200;-61
2023/11/13 01:59:45;;;;;;;5.93;4.87;;;5.70;99.90;;;-141.84;99.29;53615.19;4981993;28;20207;-60
2023/11/13 02:02:13;;;;;;;5.63;5.03;;;5.80;99.90;;;-141.84;97.76;47322.81;4988240;28;20270;-61
2023/11/13 02:04:43;;;;;;;6.17;4.90;;;5.80;99.90;;;-141.84;96.46;38589.09;4988723;28;20240;-61
2023/11/13 02:07:11;;;;;;;5.07;4.57;;;5.90;99.90;;;-141.84;95.90;33429.97;4988279;28;20314;-61
2023/11/13 02:09:40;;;;;;;6.73;5.10;;;5.80;99.90;;;-141.84;96.15;36480.16;4974815;28;20230;-61
2023/11/13 02:12:10;;;;;;;5.20;4.70;;;5.80;99.90;;;-141.84;95.31;31260.59;4968835;28;20215;-62
2023/11/13 02:14:38;;;;;;;6.07;5.03;;;5.80;99.90;;;-141.84;96.35;36088.28;4985802;28;20711;-61
2023/11/13 02:17:10;;;;;;;5.47;4.97;;;5.80;99.90;;;-141.84;97.46;42871.75;4987764;28;20314;-61
2023/11/13 02:19:38;;;;;;;6.47;5.20;;;5.80;99.90;;;-141.84;98.36;49157.03;4980949;28;20231;-61
2023/11/13 02:22:09;;;;;;;7.87;5.23;;;5.80;99.90;;;-141.84;97.03;42473.13;4987997;28;20293;-61
2023/11/13 02:24:38;;;;;;;5.77;4.90;;;5.80;99.90;;;-141.84;97.12;41467.53;4987897;28;20769;-60
2023/11/13 02:27:08;;;;;;;5.87;5.20;;;5.80;99.90;;;-141.84;97.55;43068.03;4987836;28;20290;-60
2023/11/13 02:29:37;;;;;;;6.33;5.70;;;5.70;99.90;;;-141.84;99.04;52565.75;4981371;28;20302;-61
2023/11/13 02:32:06;;;;;;;6.00;5.40;;;5.60;99.90;;;-141.84;99.95;57290.34;4977387;28;20277;-61
2023/11/13 02:34:35;;;;;;;6.97;6.10;;;5.50;99.90;;;-141.84;100.00;62809.50;4987896;28;20230;-61
2023/11/13 02:37:03;;;;;;;5.70;5.10;;;5.40;99.90;;;-141.84;100.00;65966.75;4986951;28;20265;-62
2023/11/13 02:39:32;;;;;;;7.63;5.70;;;5.40;99.90;;;-141.84;100.00;69916.81;4976144;28;20285;-61
2023/11/13 02:42:01;;;;;;;6.57;5.50;;;5.30;99.90;;;-141.84;100.00;75189.69;4968636;28;20211;-60
2023/11/13 02:44:30;;;;;;;7.90;5.90;;;5.30;99.90;;;-141.84;100.00;79148.88;4982888;28;20231;-61
2023/11/13 02:46:58;;;;;;;6.37;5.17;;;5.20;99.90;;;-141.84;100.00;79677.06;4987137;28;21061;-61
2023/11/13 02:49:26;;;;;;;5.93;4.73;;;5.30;99.90;;;-141.84;100.00;81790.53;4974706;28;20230;-62
2023/11/13 02:51:54;;;;;;;5.47;4.70;;;5.20;99.90;;;-141.84;100.00;80733.66;4968029;28;20235;-60
2023/11/13 02:54:22;;;;;;;6.13;4.87;;;5.30;99.90;;;-141.84;100.00;73607.09;4977319;28;20671;-61
2023/11/13 02:56:51;;;;;;;8.77;4.90;;;5.30;99.90;;;-141.84;100.00;71497.94;4987737;28;20249;-60
2023/11/13 02:59:20;;;;;;;7.33;4.80;;;5.40;99.90;;;-141.84;100.00;71234.38;4987239;28;20267;-61
2023/11/13 03:01:48;;;;;;;6.67;4.97;;;5.30;99.90;;;-141.84;100.00;74134.56;4981505;28;20321;-61
2023/11/13 03:04:17;;;;;;;6.47;4.97;;;5.30;99.90;;;-141.84;100.00;78092.72;4987350;28;20321;-61
2023/11/13 03:06:45;;;;;;;5.83;5.03;;;5.30;99.90;;;-141.84;100.00;80469.50;4973566;28;20245;-61
2023/11/13 03:09:13;;;;;;;6.17;4.33;;;5.20;99.90;;;-141.84;100.00;84433.91;4967944;28;20287;-61
2023/11/13 03:11:41;;;;;;;5.60;4.70;;;5.20;99.90;;;-141.84;100.00;87343.63;4961706;28;20298;-61
2023/11/13 03:14:10;;;;;;;5.20;4.70;;;5.10;99.90;;;-141.84;100.00;90520.28;4980861;28;20652;-66
2023/11/13 03:16:40;;;;;;;5.20;4.50;;;5.10;99.90;;;-141.84;100.00;91844.63;4986997;28;20310;-65
2023/11/13 03:19:08;;;;;;;5.00;4.50;;;5.10;99.90;;;-141.84;100.00;89196.38;4986688;28;20290;-65
2023/11/13 03:21:36;;;;;;;6.23;4.80;;;5.10;99.90;;;-141.84;100.00;89461.13;4979861;28;20257;-65
2023/11/13 03:24:05;;;;;;;5.00;4.23;;;5.10;99.90;;;-141.84;100.00;92109.53;4986861;28;20229;-66
2023/11/13 03:26:33;;;;;;;7.07;4.30;;;5.10;99.90;;;-141.84;100.00;93964.47;4987019;28;20310;-66
2023/11/13 03:29:01;;;;;;;5.50;4.20;;;5.10;99.90;;;-141.84;100.00;93169.38;4986737;28;20326;-66
2023/11/13 03:31:29;;;;;;;5.10;4.60;;;5.10;99.90;;;-141.84;100.00;95289.94;4979857;28;20242;-66
2023/11/13 03:33:59;;;;;;;6.73;4.80;;;5.00;99.90;;;-141.84;100.00;96615.84;4986607;28;20579;-66
2023/11/13 03:36:28;;;;;;;9.17;5.63;;;5.00;99.90;;;-141.84;100.00;93434.41;4986552;28;20207;-65
2023/11/13 03:38:56;;;;;;;7.73;4.83;;;5.10;99.90;;;-141.84;100.00;90785.09;4985783;28;20286;-67
2023/11/13 03:41:24;;;;;;;5.40;4.80;;;5.10;99.90;;;-141.84;100.00;91844.63;4965438;28;20329;-66
2023/11/13 03:43:52;;;;;;;7.30;5.13;;;5.00;99.90;;;-141.84;100.00;93169.38;4971598;28;20713;-66
2023/11/13 03:46:21;;;;;;;6.53;4.83;;;5.10;99.90;;;-141.84;100.00;94229.53;4980909;28;20266;-66
2023/11/13 03:48:49;;;;;;;6.07;4.80;;;5.00;99.90;;;-141.84;100.00;92374.47;4985207;28;20321;-68
2023/11/13 03:51:19;;;;;;;7.97;4.57;;;4.90;99.90;;;-141.84;100.00;92904.41;4981354;28;20219;-66
2023/11/13 03:53:47;;;;;;;4.97;4.43;;;4.90;99.90;;;-141.84;100.00;96350.63;4980126;28;20670;-65
2023/11/13 03:56:15;;;;;;;6.47;5.10;;;4.90;99.90;;;-141.84;100.00;98738.19;4986477;28;20678;-66
2023/11/13 03:58:44;;;;;;;7.07;4.70;;;4.80;99.90;;;-141.84;100.00;100596.16;4986204;28;20233;-66
2023/11/13 04:01:13;;;;;;;7.73;5.27;;;4.70;99.90;;;-141.84;100.00;100861.66;4986423;28;20322;-65
2023/11/13 04:03:41;;;;;;;9.07;5.30;;;4.80;99.90;;;-141.84;100.00;101392.69;4960290;28;20826;-66
2023/11/13 04:06:09;;;;;;;8.80;5.60;;;4.80;99.90;;;-141.84;100.00;101658.25;4966922;28;20211;-65
2023/11/13 04:08:39;;;;;;;6.13;5.47;;;4.70;99.90;;;-141.84;100.00;102455.00;4966959;28;20764;-65
2023/11/13 04:11:07;;;;;;;9.07;5.67;;;4.70;99.90;;;-141.84;100.00;101392.69;4966301;28;20338;-67
2023/11/13 04:13:39;;;;;;;6.57;5.77;;;4.80;99.90;;;-141.84;100.00;100596.16;4968019;28;20302;-65
2023/11/13 04:16:08;;;;;;;7.70;5.70;;;4.80;99.90;;;-141.84;100.00;100861.66;4985556;28;20683;-66
2023/11/13 04:18:37;;;;;;;7.50;5.53;;;4.80;99.90;;;-141.84;100.00;102455.00;4985903;28;20229;-66
2023/11/13 04:21:05;;;;;;;8.27;6.50;;;4.70;99.90;;;-141.84;100.00;104048.94;4985757;28;20218;-66
2023/11/13 04:23:34;;;;;;;6.30;5.70;;;4.70;99.90;;;-141.84;100.00;105643.53;4978786;28;20273;-66
2023/11/13 04:26:04;;;;;;;8.70;5.97;;;4.70;99.90;;;-141.84;100.00;107238.72;4985538;28;20711;-66
2023/11/13 04:28:33;;;;;;;7.63;6.07;;;4.60;99.90;;;-141.84;100.00;108568.56;4985598;28;20234;-65
2023/11/13 04:31:05;;;;;;;8.30;6.07;;;4.60;99.90;;;-141.84;100.00;108568.56;4985403;28;20240;-67
2023/11/13 04:33:33;;;;;;;8.37;6.20;;;4.60;99.90;;;-141.84;100.00;108302.56;4978532;28;20227;-65
2023/11/13 04:36:02;;;;;;;7.23;6.60;;;4.70;99.90;;;-141.84;100.00;108834.56;4986077;28;20300;-66
2023/11/13 04:38:31;;;;;;;8.03;7.23;;;4.60;99.90;;;-141.84;100.00;109898.81;4985877;28;20354;-65
2023/11/13 04:40:59;;;;;;;7.33;6.63;;;4.60;99.90;;;-141.84;100.00;110697.16;4967732;28;20266;-66
2023/11/13 04:43:28;;;;;;;6.80;6.10;;;4.60;99.90;;;-141.84;100.00;111761.88;4966214;28;20701;-66
2023/11/13 04:45:57;;;;;;;9.73;5.77;;;4.30;99.90;;;-141.84;100.00;112294.34;4984947;28;20246;-66
2023/11/13 04:48:25;;;;;;;9.83;5.57;;;4.50;99.90;;;-141.84;100.00;112826.88;4985750;28;20210;-65
2023/11/13 04:50:53;;;;;;;6.37;4.90;;;4.50;99.90;;;-141.84;100.00;113093.19;4967685;28;20219;-65
2023/11/13 04:53:22;;;;;;;6.63;5.37;;;4.50;99.90;;;-141.84;100.00;112826.88;4965908;28;20377;-65
2023/11/13 04:55:50;;;;;;;5.67;4.73;;;4.60;99.90;;;-141.84;100.00;112826.88;4965219;28;20617;-65
2023/11/13 04:58:20;;;;;;;6.67;5.67;;;4.60;99.90;;;-141.84;100.00;113093.19;4972515;28;20309;-65
2023/11/13 05:00:51;;;;;;;5.40;4.90;;;4.60;99.90;;;-141.84;100.00;113625.81;4985161;28;20234;-65
2023/11/13 05:03:19;;;;;;;5.43;4.90;;;4.60;99.90;;;-141.84;100.00;113892.16;4985119;28;20217;-66
2023/11/13 05:05:48;;;;;;;7.67;5.90;;;4.60;99.90;;;-141.84;100.00;113892.16;4979028;28;20281;-67
2023/11/13 05:08:16;;;;;;;6.40;5.50;;;4.60;99.90;;;-141.84;100.00;113625.81;4984643;28;20296;-66
2023/11/13 05:10:44;;;;;;;7.30;5.97;;;4.60;99.90;;;-141.84;100.00;113625.81;4985173;28;20621;-67
2023/11/13 05:13:15;;;;;;;7.33;5.77;;;4.60;99.90;;;-141.84;100.00;113093.19;4985131;28;20258;-65
2023/11/13 05:15:43;;;;;;;6.60;5.90;;;4.70;99.90;;;-141.84;100.00;113093.19;4978408;28;20264;-66
2023/11/13 05:18:13;;;;;;;8.07;6.00;;;4.70;99.90;;;-141.84;100.00;112028.13;4985452;28;20250;-66
2023/11/13 05:20:45;;;;;;;7.73;6.07;;;4.60;99.90;;;-141.84;100.00;111495.69;4985641;28;20290;-67
2023/11/13 05:23:14;;;;;;;6.97;6.20;;;4.70;99.90;;;-141.84;100.00;111761.88;4984406;28;20246;-65
2023/11/13 05:25:43;;;;;;;7.80;6.17;;;4.70;99.90;;;-141.84;100.00;110431.03;4978277;28;20319;-66
2023/11/13 05:28:11;;;;;;;7.50;6.17;;;4.70;99.90;;;-141.84;100.00;109632.72;4985101;28;20341;-65
2023/11/13 05:30:39;;;;;;;8.67;6.57;;;4.80;99.90;;;-141.84;100.00;109898.81;4984992;28;20241;-66
2023/11/13 05:33:08;;;;;;;8.30;6.53;;;4.70;99.90;;;-141.84;100.00;103517.56;4984904;28;20217;-65
2023/11/13 05:35:37;;;;;;;8.57;6.90;;;4.90;99.90;;;-141.84;100.00;99799.78;4978814;28;20254;-66
2023/11/13 05:38:06;;;;;;;8.07;6.00;;;4.90;99.90;;;-141.84;100.00;94759.69;4984520;28;20265;-65
2023/11/13 05:40:34;;;;;;;9.43;7.07;;;5.10;99.90;;;-141.84;100.00;88402.22;4971118;28;20258;-65
2023/11/13 05:43:02;;;;;;;7.97;6.57;;;5.10;99.90;;;-141.84;100.00;87872.91;4972690;28;20243;-66
2023/11/13 05:45:31;;;;;;;10.77;6.33;;;5.10;99.90;;;-141.84;100.00;92639.44;4977985;28;20234;-65
2023/11/13 05:47:59;;;;;;;9.50;7.33;;;5.10;99.90;;;-141.84;100.00;96085.44;4985183;28;20317;-67
2023/11/13 05:50:28;;;;;;;10.30;7.33;;;5.10;99.90;;;-141.84;100.00;90785.09;4969892;28;20244;-67
2023/11/13 05:52:57;;;;;;;8.53;7.03;;;5.10;99.90;;;-141.84;100.00;86020.75;4965518;28;20326;-66
2023/11/13 05:55:26;;;;;;;9.13;6.60;;;5.10;99.90;;;-141.84;100.00;87079.03;4974195;28;20949;-65
2023/11/13 05:57:54;;;;;;;8.03;7.00;;;5.10;99.90;;;-141.84;100.00;87872.91;4984874;28;20789;-66
2023/11/13 06:00:22;;;;;;;9.13;7.90;;;5.10;99.90;;;-141.84;100.00;88666.94;4984935;28;20658;-66
2023/11/13 06:02:51;;;;;;;9.63;7.37;;;5.20;99.90;;;-141.84;100.00;87343.63;4984986;28;20210;-67
2023/11/13 06:05:21;;;;;;;8.60;7.10;;;5.20;99.90;;;-141.84;100.00;88137.56;4984599;28;20296;-65
2023/11/13 06:07:49;;;;;;;9.40;7.13;;;5.20;99.90;;;-141.84;100.00;87872.91;4980084;28;20241;-65
2023/11/13 06:10:19;;;;;;;8.83;7.73;;;5.20;99.90;;;-141.84;100.00;89990.66;4984837;28;20651;-68
2023/11/13 06:12:47;;;;;;;9.87;7.57;;;5.30;99.90;;;-141.84;100.00;80469.50;4984686;28;20234;-65
2023/11/13 06:15:16;;;;;;;10.20;8.03;;;5.30;99.90;;;-141.84;100.00;77564.72;4984308;28;20303;-66
2023/11/13 06:17:46;;;;;;;11.30;7.97;;;5.30;99.90;;;-141.84;100.00;81790.53;4978231;28;20219;-66
2023/11/13 06:20:15;;;;;;;8.80;7.90;;;5.30;99.90;;;-141.84;100.00;75717.34;4989384;28;20320;-65
2023/11/13 06:22:47;;;;;;;11.70;8.27;;;5.30;99.90;;;-141.84;100.00;65966.75;5007530;28;20791;-65
2023/11/13 06:25:16;;;;;;;10.47;8.20;;;5.30;99.90;;;-141.84;100.00;63072.50;4989588;28;20226;-66
2023/11/13 06:27:46;;;;;;;9.20;7.47;;;5.40;99.90;;;-141.84;100.00;68072.97;4981952;28;20969;-66
2023/11/13 06:30:14;;;;;;;10.60;8.30;;;5.40;99.90;;;-141.84;100.00;77036.81;4983921;28;20226;-66
2023/11/13 06:32:43;;;;;;;12.93;8.33;;;5.40;99.90;;;-141.84;100.00;70443.78;4992602;28;20666;-66
2023/11/13 06:35:12;;;;;;;9.30;7.70;;;5.40;99.90;;;-141.84;100.00;75981.22;5007201;28;20230;-66
2023/11/13 06:37:42;;;;;;;11.73;9.07;;;5.40;99.90;;;-141.84;100.00;83112.00;5000456;28;20233;-66
2023/11/13 06:40:16;;;;;;;11.50;8.63;;;5.30;99.90;;;-141.84;100.00;77300.78;5000955;28;20614;-66
2023/11/13 06:42:47;;;;;;;11.13;8.73;;;5.30;99.90;;;-141.84;100.00;83905.09;5003987;28;20233;-67
2023/11/13 06:45:16;;;;;;;10.50;8.37;;;5.30;99.90;;;-141.84;100.00;89196.38;4967859;28;20297;-65
2023/11/13 06:47:50;;;;;;;10.33;7.90;;;5.30;99.90;;;-141.84;100.00;88931.63;4962049;28;20216;-67
2023/11/13 06:50:19;;;;;;;9.77;8.00;;;5.40;99.90;;;-141.84;100.00;91579.72;4970604;28;20258;-66
2023/11/13 06:52:47;;;;;;;11.27;9.00;;;5.40;99.90;;;-141.84;100.00;83112.00;4990626;28;20230;-67
2023/11/13 06:55:16;;;;;;;12.70;9.67;;;5.50;99.90;;;-141.84;100.00;79412.97;4991603;28;20666;-66
2023/11/13 06:57:44;;;;;;;11.23;9.67;;;5.60;99.90;;;-141.84;100.00;72288.75;4981380;28;21062;-66
2023/11/13 07:00:16;;;;;;;13.13;9.10;;;5.60;99.90;;;-141.84;100.00;72552.38;4987403;28;20293;-66
2023/11/13 07:02:47;;;;;;;11.17;8.50;;;5.70;99.90;;;-141.84;100.00;74134.56;4973494;28;20225;-66
2023/11/13 07:05:16;;;;;;;12.10;8.47;;;5.70;99.90;;;-141.84;100.00;77564.72;4987188;28;20230;-66
2023/11/13 07:07:44;;;;;;;12.63;9.10;;;5.70;99.90;;;-141.84;100.00;76508.97;4980478;28;20274;-67
2023/11/13 07:10:12;;;;;;;12.03;8.80;;;5.80;99.90;;;-141.84;100.00;74398.31;4987118;28;20666;-67
2023/11/13 07:12:41;;;;;;;10.77;8.17;;;5.80;99.90;;;-141.84;100.00;69653.38;4986011;28;20219;-66
2023/11/13 07:15:11;;;;;;;11.60;8.80;;;5.90;99.90;;;-141.84;100.00;59391.97;4989458;28;20711;-66
2023/11/13 07:17:41;;;;;;;11.77;8.70;;;5.90;99.90;;;-141.84;100.00;60443.22;4994242;28;20211;-68
2023/11/13 07:20:13;;;;;;;10.33;8.27;;;6.00;99.90;;;-141.84;96.15;36961.88;5005727;28;20322;-66
2023/11/13 07:22:41;;;;;;;11.07;8.80;;;6.20;99.90;;;-141.84;96.16;33954.16;5005578;28;20265;-67
2023/11/13 07:25:09;;;;;;;10.87;8.93;;;6.30;99.90;;;-141.84;95.04;30117.25;4988974;28;20278;-67
2023/11/13 07:27:38;;;;;;;10.70;8.90;;;6.30;99.90;;;-141.84;96.81;36849.59;4980049;28;20285;-67
2023/11/13 07:30:08;;;;;;;11.83;8.53;;;6.30;99.90;;;-141.84;97.97;46798.88;4987321;28;20259;-67
2023/11/13 07:32:37;;;;;;;10.20;8.83;;;6.30;99.90;;;-141.84;96.09;35441.41;4987046;28;20221;-67
2023/11/13 07:35:09;;;;;;;11.13;8.93;;;6.40;99.90;;;-141.84;94.91;29440.81;5000793;28;20227;-67
2023/11/13 07:37:38;;;;;;;11.03;8.60;;;6.50;99.90;;;-141.84;95.11;31527.63;4979961;28;20262;-66
2023/11/13 07:40:09;;;;;;;11.60;9.37;;;6.60;99.90;;;-141.84;92.92;23689.44;4977242;28;20231;-66
2023/11/13 07:42:36;;;;;;;10.67;9.00;;;6.70;99.90;;;-141.84;90.68;20956.19;4967779;28;20635;-66
2023/11/13 07:45:06;;;;;;;12.60;8.63;;;6.80;99.90;;;-141.84;91.30;21419.72;4986663;28;20239;-67
2023/11/13 07:47:34;;;;;;;10.17;8.70;;;6.80;99.90;;;-141.84;91.86;22074.47;4977894;28;20223;-67
2023/11/13 07:50:02;;;;;;;10.43;8.83;;;6.90;99.90;;;-141.84;90.33;20809.81;4989600;28;20288;-67
2023/11/13 07:52:33;;;;;;;9.57;7.77;;;7.10;99.90;;;-141.84;90.52;20891.13;4987082;28;20235;-66
2023/11/13 07:55:01;;;;;;;11.33;9.00;;;7.20;99.90;;;-141.84;88.33;19972.38;4988060;28;20318;-67
2023/11/13 07:57:29;;;;;;;11.43;8.30;;;7.30;99.90;;;-141.84;88.48;20029.28;4999184;28;20226;-67
2023/11/13 07:59:57;;;;;;;9.97;8.80;;;7.40;99.90;;;-141.84;87.08;19738.66;4992573;28;20907;-66
2023/11/13 08:02:26;;;;;;;10.87;8.63;;;7.50;99.90;;;-141.84;84.74;19427.72;4987879;28;20226;-67
2023/11/13 08:04:55;;;;;;;10.53;8.23;;;7.70;99.90;;;-141.84;85.52;19529.31;4988948;28;20773;-67
2023/11/13 08:07:23;;;;;;;11.67;8.10;;;7.70;99.90;;;-141.84;84.17;19383.00;5001513;28;20219;-61
2023/11/13 08:09:54;;;;;;;11.43;8.83;;;7.80;99.90;;;-141.84;82.89;19303.75;5005502;28;20234;-60
2023/11/13 08:12:23;;;;;;;9.90;8.40;;;7.90;99.90;;;-141.84;82.23;19279.38;5005725;28;20280;-62
2023/11/13 08:14:51;;;;;;;9.93;7.77;;;7.80;99.90;;;-141.84;82.48;19287.50;4969492;28;20223;-63
2023/11/13 08:17:19;;;;;;;11.37;8.67;;;7.80;99.90;;;-141.84;83.29;19299.69;4980058;28;20666;-61
2023/11/13 08:19:48;;;;;;;11.80;8.63;;;7.80;99.90;;;-141.84;84.34;19360.66;4979029;28;20277;-61
2023/11/13 08:22:16;;;;;;;11.07;8.57;;;7.70;99.90;;;-141.84;85.44;19450.06;4985829;28;20310;-61
2023/11/13 08:24:45;;;;;;;11.57;8.43;;;7.60;99.90;;;-141.84;86.23;19527.28;4985541;28;20232;-62
2023/11/13 08:27:15;;;;;;;10.37;8.17;;;7.50;99.90;;;-141.84;84.83;19378.94;4985459;28;20249;-64
2023/11/13 08:29:44;;;;;;;10.63;7.77;;;7.50;99.90;;;-141.84;83.48;19317.97;4979581;28;21123;-62
2023/11/13 08:32:12;;;;;;;9.80;8.07;;;7.60;99.90;;;-141.84;83.77;19342.34;4985635;28;20325;-61
2023/11/13 08:34:41;;;;;;;12.10;7.97;;;7.60;99.90;;;-141.84;84.34;19374.88;4985579;28;20232;-61
2023/11/13 08:37:11;;;;;;;10.10;8.13;;;7.70;99.90;;;-141.84;84.11;19362.69;4985506;28;20226;-62
2023/11/13 08:39:39;;;;;;;8.60;7.37;;;7.70;99.90;;;-141.84;83.56;19385.03;4973177;28;20750;-61
2023/11/13 08:42:08;;;;;;;9.43;7.80;;;7.80;99.90;;;-141.84;82.16;19305.78;4966191;28;20247;-62
2023/11/13 08:44:37;;;;;;;9.27;7.77;;;8.00;99.90;;;-141.84;82.28;19307.81;4982466;28;20227;-62
2023/11/13 08:47:06;;;;;;;9.10;7.80;;;8.10;99.90;;;-141.84;81.74;19313.91;4985383;28;20669;-61
2023/11/13 08:49:34;;;;;;;10.20;8.37;;;8.20;99.90;;;-141.84;80.03;19263.09;4970725;28;20227;-60
2023/11/13 08:52:02;;;;;;;9.93;8.07;;;8.30;99.90;;;-141.84;78.56;19202.16;4965806;28;20232;-61
2023/11/13 08:54:32;;;;;;;9.00;7.93;;;8.30;99.90;;;-141.84;76.99;19163.53;4966315;28;20228;-61
2023/11/13 08:57:04;;;;;;;11.20;7.77;;;8.30;99.90;;;-141.84;78.38;19204.19;4966429;28;20303;-62
2023/11/13 08:59:32;;;;;;;8.83;7.30;;;8.30;99.90;;;-141.84;78.69;19216.38;4958849;28;20387;-61
2023/11/13 09:02:05;;;;;;;10.73;7.87;;;8.30;99.90;;;-141.84;78.43;19212.31;4977184;28;20317;-62
2023/11/13 09:04:34;;;;;;;10.20;8.13;;;8.30;99.90;;;-141.84;78.94;19224.50;4985380;28;20317;-61
2023/11/13 09:07:07;;;;;;;8.97;7.83;;;8.30;99.90;;;-141.84;80.27;19216.38;4985176;28;20227;-61
2023/11/13 09:09:37;;;;;;;9.93;8.10;;;8.30;99.90;;;-141.84;78.45;19224.50;4978746;28;20249;-62
2023/11/13 09:12:07;;;;;;;10.00;7.83;;;8.30;99.90;;;-141.84;78.53;19228.56;4985639;28;20285;-61
2023/11/13 09:14:35;;;;;;;8.60;7.70;;;8.30;99.90;;;-141.84;79.35;19228.56;4985172;28;20314;-62
2023/11/13 09:17:12;;;;;;;8.50;7.37;;;8.30;99.90;;;-141.84;76.37;19187.91;4985466;28;20282;-62
2023/11/13 09:19:42;;;;;;;8.37;6.93;;;8.40;99.90;;;-141.84;75.12;19149.31;4977962;28;20266;-62
2023/11/13 09:22:12;;;;;;;8.70;7.00;;;8.50;99.90;;;-141.84;75.90;19216.38;4984802;28;20705;-62
2023/11/13 09:24:41;;;;;;;8.37;7.00;;;8.60;99.90;;;-141.84;74.97;19220.44;4984342;28;20254;-61
2023/11/13 09:27:11;;;;;;;9.80;7.40;;;8.80;99.90;;;-141.84;73.54;19224.50;4984276;28;20246;-61
2023/11/13 09:29:44;;;;;;;8.53;7.20;;;8.80;99.90;;;-141.84;70.35;19169.63;4978754;28;20296;-61
2023/11/13 09:32:14;;;;;;;8.87;6.87;;;9.00;99.90;;;-141.84;70.60;19202.16;4984961;28;20250;-62
2023/11/13 09:34:43;;;;;;;8.80;7.33;;;9.10;99.90;;;-141.84;72.17;19192.00;4985023;28;20246;-62
2023/11/13 09:37:11;;;;;;;7.87;7.07;;;9.20;99.90;;;-141.84;70.28;19192.00;4984041;28;20237;-61
2023/11/13 09:39:42;;;;;;;9.47;7.57;;;9.00;99.90;;;-141.84;71.22;19206.22;4972689;28;20231;-61
2023/11/13 09:42:15;;;;;;;7.30;6.13;;;9.00;99.90;;;-141.84;72.27;19202.16;4965747;28;20247;-62
2023/11/13 09:44:45;;;;;;;7.70;6.50;;;9.10;99.90;;;-141.84;73.05;19208.25;4983093;28;20630;-61
2023/11/13 09:47:29;;;;;;;10.20;7.27;;;8.90;99.90;;;-141.84;72.79;19189.97;4983642;28;20285;-62
2023/11/13 09:50:15;;;;;;;7.77;6.93;;;8.80;99.90;;;-141.84;73.50;19167.59;4973681;28;20322;-62
2023/11/13 09:52:47;;;;;;;6.93;6.20;;;8.80;99.90;;;-141.84;73.31;19175.72;4980826;28;20242;-61
2023/11/13 09:55:20;;;;;;;8.43;6.00;;;8.90;99.90;;;-141.84;73.05;19177.75;4987745;28;20310;-62
2023/11/13 09:57:51;;;;;;;7.23;6.03;;;9.00;99.90;;;-141.84;73.07;19208.25;4982875;28;20285;-62
2023/11/13 10:00:23;;;;;;;7.17;6.40;;;9.10;99.90;;;-141.84;72.78;19216.38;4987859;28;20664;-61
2023/11/13 10:02:54;;;;;;;7.30;6.57;;;9.10;99.90;;;-141.84;73.87;19194.03;4989018;28;20247;-62
2023/11/13 10:05:26;;;;;;;7.27;6.13;;;9.20;99.90;;;-141.84;71.36;19228.56;4988061;28;20785;-61
2023/11/13 10:07:55;;;;;;;7.33;6.53;;;9.30;99.90;;;-141.84;70.46;19242.78;4987911;28;20282;-61
2023/11/13 10:10:27;;;;;;;8.83;6.00;;;9.40;99.90;;;-141.84;70.11;19228.56;4988527;28;20288;-62
2023/11/13 10:12:58;;;;;;;9.33;6.77;;;9.40;99.90;;;-141.84;71.55;19206.22;4988441;28;20239;-62
2023/11/13 10:15:28;;;;;;;8.83;6.40;;;9.30;99.90;;;-141.84;72.85;19192.00;4981531;28;20298;-62